Time;durP1;ratioP1;P1;durP2;ratioP2;P2;SDS_P1;SDS_P2;PMS_P1;PMS_P2;Temp;Humidity;BMP_temperature;BMP_pressure;BME280_temperature;BME280_humidity;BME280_pressure;Samples;Min_cycle;Max_cycle;Signal;HPM_P1;HPM_P2
2023/09/30 00:02:20;;;;;;;0.40;0.30;;;;;;;15.80;60.05;100245.03;5307924;26;20055;-96
2023/09/30 00:04:45;;;;;;;2.78;1.60;;;;;;;15.86;60.06;100242.12;5289866;26;20083;-96
2023/09/30 00:07:11;;;;;;;1.67;0.82;;;;;;;15.69;60.05;100248.16;5307965;26;20404;-96
2023/09/30 00:09:37;;;;;;;1.67;1.30;;;;;;;15.76;60.05;100240.84;5289957;26;20150;-95
2023/09/30 00:12:02;;;;;;;2.78;1.67;;;;;;;15.68;60.04;100240.34;5290040;26;20056;-95
2023/09/30 00:14:29;;;;;;;0.37;0.37;;;;;;;15.77;60.04;100240.78;5288203;26;20099;-94
2023/09/30 00:16:54;;;;;;;0.50;0.47;;;;;;;15.58;60.04;100245.09;5289899;26;20048;-95
2023/09/30 00:19:22;;;;;;;0.25;0.25;;;;;;;15.70;60.05;100239.34;5288888;26;21018;-95
2023/09/30 00:21:48;;;;;;;24.65;1.15;;;;;;;15.46;60.03;100236.03;5290588;26;20099;-94
2023/09/30 00:24:13;;;;;;;0.98;0.77;;;;;;;15.39;60.02;100234.59;5290377;26;20408;-95
2023/09/30 00:26:39;;;;;;;1.12;0.88;;;;;;;15.28;60.03;100237.66;5319361;26;20049;-95
2023/09/30 00:29:05;;;;;;;0.20;0.20;;;;;;;15.28;60.02;100229.81;5304606;26;20029;-95
2023/09/30 00:31:31;;;;;;;1.20;1.10;;;;;;;15.18;60.02;100239.00;5301347;26;20060;-95
2023/09/30 00:33:56;;;;;;;0.10;0.10;;;;;;;15.22;60.02;100234.47;5297322;26;20329;-95
2023/09/30 00:36:22;;;;;;;0.40;0.10;;;;;;;15.03;60.02;100237.03;5289803;26;20342;-95
2023/09/30 00:38:47;;;;;;;0.05;0.03;;;;;;;14.94;60.01;100233.03;5307727;26;20060;-95
2023/09/30 00:41:13;;;;;;;0.30;0.30;;;;;;;14.97;60.01;100229.44;5290328;26;20062;-95
2023/09/30 00:43:39;;;;;;;0.37;0.28;;;;;;;15.08;60.01;100231.56;5291063;26;20052;-96
2023/09/30 00:46:11;;;;;;;0.35;0.35;;;;;;;15.16;60.01;100221.62;5308448;26;20067;-94
2023/09/30 00:48:36;;;;;;;1.85;1.02;;;;;;;15.07;60.01;100224.63;5290680;26;20068;-95
2023/09/30 00:51:02;;;;;;;1.27;0.25;;;;;;;15.13;60.01;100214.72;5308287;26;20064;-95
2023/09/30 00:53:28;;;;;;;0.82;0.62;;;;;;;15.05;60.01;100222.94;5289872;26;20056;-96
2023/09/30 00:55:54;;;;;;;3.62;1.08;;;;;;;15.10;60.02;100216.63;5290696;26;20066;-96
2023/09/30 00:58:20;;;;;;;2.47;0.60;;;;;;;15.15;60.01;100215.53;5290272;26;20482;-96
2023/09/30 01:00:45;;;;;;;0.30;0.30;;;;;;;15.14;60.01;100218.19;5290308;26;20080;-95
2023/09/30 01:03:11;;;;;;;0.70;0.43;;;;;;;15.06;60.01;100215.91;5290091;26;20067;-96
2023/09/30 01:05:36;;;;;;;0.60;0.60;;;;;;;15.18;60.02;100211.94;5289992;26;20075;-95
2023/09/30 01:08:02;;;;;;;0.65;0.40;;;;;;;15.28;60.02;100207.97;5290153;26;20122;-96
2023/09/30 01:10:28;;;;;;;0.98;0.68;;;;;;;14.93;60.01;100215.59;5308542;26;20056;-96
2023/09/30 01:12:54;;;;;;;4.68;0.52;;;;;;;14.87;60.01;100215.84;5290292;26;20100;-96
2023/09/30 01:15:19;;;;;;;1.67;0.75;;;;;;;14.61;59.99;100216.06;5290692;26;20056;-96
2023/09/30 01:17:45;;;;;;;0.10;0.10;;;;;;;14.71;60.00;100217.41;5290429;26;20175;-96
2023/09/30 01:20:11;;;;;;;0.22;0.22;;;;;;;14.82;59.99;100223.06;5290806;26;20056;-96
2023/09/30 01:22:36;;;;;;;0.52;0.52;;;;;;;14.70;60.00;100219.19;5291500;26;20060;-96
2023/09/30 01:25:02;;;;;;;1.45;0.65;;;;;;;14.63;59.98;100220.34;5290636;26;20349;-96
2023/09/30 01:27:28;;;;;;;0.40;0.40;;;;;;;14.67;59.99;100215.84;5290433;26;20060;-93
2023/09/30 01:29:53;;;;;;;0.45;0.45;;;;;;;14.56;59.98;100220.66;5308719;26;20380;-96
2023/09/30 01:32:19;;;;;;;0.37;0.37;;;;;;;14.51;59.98;100227.84;5290051;26;20056;-96
2023/09/30 01:34:44;;;;;;;0.15;0.15;;;;;;;14.57;59.99;100214.50;5309104;26;20114;-96
2023/09/30 01:37:10;;;;;;;0.20;0.20;;;;;;;14.72;60.00;100217.34;5308106;26;20075;-95
2023/09/30 01:39:35;;;;;;;0.35;0.28;;;;;;;14.73;59.99;100212.97;5309501;26;20066;-94
2023/09/30 01:42:01;;;;;;;0.20;0.20;;;;;;;14.72;60.00;100212.12;5289000;26;20462;-94
2023/09/30 01:44:27;;;;;;;3.78;2.12;;;;;;;14.78;60.00;100211.00;5289736;26;20066;-94
2023/09/30 01:46:52;;;;;;;0.55;0.55;;;;;;;14.68;59.99;100213.16;5290037;26;20162;-94
2023/09/30 01:49:18;;;;;;;1.48;0.57;;;;;;;14.75;59.99;100211.13;5288867;26;26351;-96
2023/09/30 01:51:43;;;;;;;0.20;0.20;;;;;;;14.81;59.99;100213.47;5289715;26;20048;-95
2023/09/30 01:54:09;;;;;;;1.15;0.70;;;;;;;14.81;60.00;100205.63;5289681;26;20377;-95
2023/09/30 01:56:34;;;;;;;0.00;0.00;;;;;;;14.65;59.99;100210.63;5289090;26;20098;-94
2023/09/30 01:59:00;;;;;;;0.55;0.30;;;;;;;15.01;60.00;100205.63;5289262;26;20099;-95
2023/09/30 02:01:25;;;;;;;0.10;0.10;;;;;;;14.81;60.00;100207.38;5307611;26;20052;-95
2023/09/30 02:03:51;;;;;;;0.30;0.30;;;;;;;14.53;59.98;100205.91;5289458;26;20091;-94
2023/09/30 02:06:16;;;;;;;0.73;0.70;;;;;;;14.66;59.99;100206.25;5307820;26;20126;-95
2023/09/30 02:08:44;;;;;;;1.52;1.42;;;;;;;14.47;59.97;100207.94;5289441;26;20116;-94
2023/09/30 02:11:10;;;;;;;1.17;0.60;;;;;;;14.24;59.96;100214.94;5308012;26;20071;-95
2023/09/30 02:13:35;;;;;;;0.73;0.40;;;;;;;14.23;59.96;100207.97;5307728;26;20056;-94
2023/09/30 02:16:01;;;;;;;2.30;1.55;;;;;;;14.35;59.97;100204.84;5307671;26;20449;-95
2023/09/30 02:18:27;;;;;;;1.27;0.95;;;;;;;14.55;59.98;100205.84;5289656;26;20072;-95
2023/09/30 02:20:53;;;;;;;2.28;0.68;;;;;;;14.82;59.99;100207.31;5289445;26;20356;-94
2023/09/30 02:23:18;;;;;;;0.65;0.65;;;;;;;14.84;59.99;100207.25;5289855;26;20048;-94
2023/09/30 02:25:44;;;;;;;0.30;0.30;;;;;;;14.81;59.99;100205.63;5289506;26;20366;-94
2023/09/30 02:28:10;;;;;;;0.35;0.28;;;;;;;14.78;59.99;100204.91;5308449;26;20083;-96
2023/09/30 02:30:36;;;;;;;4.90;0.40;;;;;;;14.87;60.00;100199.25;5290387;26;20057;-96
2023/09/30 02:33:01;;;;;;;0.20;0.20;;;;;;;14.71;59.98;100199.06;5289959;26;20048;-96
2023/09/30 02:35:27;;;;;;;0.43;0.43;;;;;;;14.65;59.99;100189.69;5289968;26;20060;-96
2023/09/30 02:37:52;;;;;;;0.30;0.30;;;;;;;14.76;59.99;100194.50;5289770;26;20083;-96
2023/09/30 02:40:18;;;;;;;0.37;0.37;;;;;;;14.86;59.99;100194.94;5308300;26;20099;-96
2023/09/30 02:42:43;;;;;;;0.70;0.70;;;;;;;14.84;59.99;100189.75;5289762;26;20044;-94
2023/09/30 02:45:10;;;;;;;0.15;0.15;;;;;;;14.63;59.98;100195.91;5289182;26;20056;-93
2023/09/30 02:47:35;;;;;;;0.10;0.10;;;;;;;14.58;59.99;100187.38;5289327;26;20024;-93
2023/09/30 02:50:01;;;;;;;3.28;0.95;;;;;;;14.66;59.99;100195.78;5307660;26;20063;-96
2023/09/30 02:52:28;;;;;;;0.05;0.05;;;;;;;14.84;60.00;100194.16;5291706;26;20059;-96
2023/09/30 02:54:54;;;;;;;0.00;0.00;;;;;;;14.45;59.97;100188.81;5291093;26;20056;-95
2023/09/30 02:57:19;;;;;;;0.05;0.05;;;;;;;14.59;59.98;100191.72;5290826;26;20439;-96
2023/09/30 02:59:45;;;;;;;0.77;0.77;;;;;;;14.35;59.97;100197.00;5291261;26;20056;-96
2023/09/30 03:02:11;;;;;;;0.10;0.10;;;;;;;14.42;59.97;100195.81;5292715;26;20052;-96
2023/09/30 03:04:36;;;;;;;1.65;0.65;;;;;;;14.26;59.97;100200.00;5303689;26;20076;-96
2023/09/30 03:07:02;;;;;;;0.52;0.52;;;;;;;14.43;59.97;100194.09;5306547;26;20099;-96
2023/09/30 03:09:27;;;;;;;0.03;0.03;;;;;;;14.32;59.96;100197.13;5302018;26;20083;-96
2023/09/30 03:11:55;;;;;;;0.37;0.37;;;;;;;14.17;59.95;100200.34;5297112;26;20139;-95
2023/09/30 03:14:21;;;;;;;0.00;0.00;;;;;;;14.25;59.96;100198.31;5291348;26;20706;-95
2023/09/30 03:16:47;;;;;;;2.55;1.12;;;;;;;14.19;59.96;100195.06;5290214;26;20060;-96
2023/09/30 03:19:16;;;;;;;6.00;1.12;;;;;;;14.53;59.98;100205.91;5308966;26;20405;-96
2023/09/30 03:21:42;;;;;;;0.28;0.20;;;;;;;14.51;59.98;100199.03;5291549;26;20115;-96
2023/09/30 03:24:08;;;;;;;0.47;0.47;;;;;;;14.18;59.96;100203.81;5290452;26;20151;-96
2023/09/30 03:26:33;;;;;;;0.30;0.20;;;;;;;14.45;59.97;100201.91;5291082;26;20063;-96
2023/09/30 03:28:59;;;;;;;1.85;0.47;;;;;;;14.21;59.96;100201.97;5309001;26;20094;-96
2023/09/30 03:31:25;;;;;;;0.28;0.28;;;;;;;14.23;59.96;100202.75;5290736;26;20075;-96
2023/09/30 03:33:53;;;;;;;0.40;0.40;;;;;;;14.20;59.96;100202.03;5290990;26;20060;-96
2023/09/30 03:36:20;;;;;;;1.15;0.62;;;;;;;14.03;59.96;100200.91;5291332;26;20401;-96
2023/09/30 03:38:45;;;;;;;0.73;0.73;;;;;;;13.99;59.95;100203.72;5289807;26;20048;-95
2023/09/30 03:41:13;;;;;;;4.78;1.23;;;;;;;13.87;59.94;100209.41;5308475;26;20298;-95
2023/09/30 03:43:40;;;;;;;0.43;0.43;;;;;;;13.85;59.94;100206.84;5290992;26;20056;-96
2023/09/30 03:46:09;;;;;;;12.15;2.33;;;;;;;14.01;59.95;100204.50;5291191;26;20069;-95
2023/09/30 03:48:39;;;;;;;0.28;0.28;;;;;;;13.94;59.94;100206.47;5290246;26;20142;-96
2023/09/30 03:51:14;;;;;;;0.80;0.70;;;;;;;14.01;59.95;100202.72;5291587;26;20120;-95
2023/09/30 03:53:43;;;;;;;0.10;0.10;;;;;;;13.83;59.94;100204.28;5308909;26;20075;-95
2023/09/30 03:56:11;;;;;;;0.13;0.13;;;;;;;14.02;59.95;100208.81;5290890;26;20741;-96
2023/09/30 03:58:39;;;;;;;0.57;0.57;;;;;;;14.12;59.96;100212.78;5291039;26;20049;-96
2023/09/30 04:01:16;;;;;;;1.98;0.80;;;;;;;14.30;59.96;100208.59;5295540;26;20687;-96
2023/09/30 04:03:43;;;;;;;16.90;0.80;;;;;;;14.39;59.97;100209.06;5293362;26;20083;-94
2023/09/30 04:06:08;;;;;;;0.73;0.43;;;;;;;14.20;59.97;100207.25;5290399;26;20198;-96
2023/09/30 04:08:34;;;;;;;2.08;0.62;;;;;;;14.27;59.97;100204.31;5290373;26;20049;-95
2023/09/30 04:11:00;;;;;;;0.65;0.55;;;;;;;14.32;59.96;100202.38;5290173;26;20052;-96
2023/09/30 04:13:26;;;;;;;0.10;0.10;;;;;;;14.30;59.96;100204.19;5327367;26;20067;-96
2023/09/30 04:15:51;;;;;;;0.25;0.25;;;;;;;14.37;59.97;100205.66;5290773;26;20342;-95
2023/09/30 04:18:20;;;;;;;0.73;0.73;;;;;;;14.46;59.97;100208.88;5292399;26;20091;-96
2023/09/30 04:20:46;;;;;;;2.40;1.77;;;;;;;14.41;59.98;100201.12;5294304;26;20082;-96
2023/09/30 04:23:12;;;;;;;0.57;0.47;;;;;;;14.44;59.97;100201.06;5290327;26;20061;-96
2023/09/30 04:25:38;;;;;;;0.55;0.55;;;;;;;14.25;59.96;100203.53;5308846;26;20608;-94
2023/09/30 04:28:04;;;;;;;0.28;0.25;;;;;;;14.20;59.96;100207.25;5290639;26;20067;-96
2023/09/30 04:30:41;;;;;;;0.20;0.20;;;;;;;14.11;59.95;100211.06;5291243;26;20066;-96
2023/09/30 04:36:36;;;;;;;0.75;0.62;;;;;;;14.36;59.97;100205.72;5379851;26;20637;-96
2023/09/30 04:39:22;;;;;;;0.03;0.03;;;;;;;13.92;59.94;100216.16;5318602;26;20053;-96
2023/09/30 04:44:22;;;;;;;0.95;0.73;;;;;;;13.75;59.94;100218.59;5330665;26;20992;-95
2023/09/30 04:46:56;;;;;;;0.50;0.47;;;;;;;13.98;59.94;100218.56;5337927;26;20070;-96
2023/09/30 04:50:07;;;;;;;0.93;0.82;;;;;;;13.88;59.95;100214.56;5358925;26;20025;-96
2023/09/30 04:53:25;;;;;;;4.22;1.15;;;;;;;13.93;59.95;100217.84;5341040;26;20020;-96
2023/09/30 04:59:45;;;;;;;0.20;0.20;;;;;;;14.06;59.95;100218.25;5338721;27;20077;-96
2023/09/30 05:02:11;;;;;;;0.98;0.73;;;;;;;14.19;59.96;100216.84;5326174;27;20757;-96
2023/09/30 05:04:37;;;;;;;0.00;0.00;;;;;;;14.12;59.96;100216.25;5286041;27;20087;-96
2023/09/30 05:07:04;;;;;;;0.90;0.90;;;;;;;14.13;59.96;100217.09;5309562;27;20033;-96
2023/09/30 05:09:29;;;;;;;0.35;0.35;;;;;;;14.28;59.97;100228.75;5287509;27;20834;-96
2023/09/30 05:12:05;;;;;;;0.50;0.40;;;;;;;14.23;59.96;100233.31;5297301;27;20087;-96
2023/09/30 05:14:33;;;;;;;0.52;0.52;;;;;;;14.47;59.97;100231.53;5337563;27;20032;-96
2023/09/30 05:16:58;;;;;;;0.00;0.00;;;;;;;14.59;59.98;100233.63;5285586;27;20085;-96
2023/09/30 05:19:24;;;;;;;1.80;1.33;;;;;;;14.91;59.99;100234.94;5323034;27;20071;-96
2023/09/30 05:21:49;;;;;;;0.20;0.20;;;;;;;14.82;59.99;100232.69;5281068;27;20456;-95
2023/09/30 05:24:25;;;;;;;0.37;0.37;;;;;;;15.13;60.01;100229.59;5245895;27;20110;-96
2023/09/30 05:26:50;;;;;;;0.08;0.08;;;;;;;15.26;60.01;100223.78;5295313;27;20065;-93
2023/09/30 05:29:16;;;;;;;0.20;0.20;;;;;;;15.51;60.03;100228.78;5268290;27;20067;-95
2023/09/30 05:31:42;;;;;;;0.35;0.35;;;;;;;15.70;60.05;100234.09;5267877;27;20071;-95
2023/09/30 05:34:07;;;;;;;1.33;0.82;;;;;;;15.82;60.05;100228.28;5267770;27;20079;-95
2023/09/30 05:36:33;;;;;;;0.77;0.37;;;;;;;15.95;60.06;100237.31;5269610;27;20084;-95
2023/09/30 05:38:59;;;;;;;0.00;0.00;;;;;;;15.96;60.06;100230.28;5274194;26;20039;-93
2023/09/30 05:41:47;;;;;;;0.37;0.37;;;;;;;16.09;60.06;100234.06;5285324;27;20092;-96
2023/09/30 05:44:48;;;;;;;0.05;0.05;;;;;;;16.41;60.08;100231.66;5321327;27;20024;-96
2023/09/30 05:48:08;;;;;;;;;;;;;;;;;;;;;
2023/09/30 05:51:27;;;;;;;1.60;0.60;;;;;;;16.95;60.11;100225.47;5254380;27;20030;-98
2023/09/30 05:54:46;;;;;;;0.52;0.50;;;;;;;17.29;60.12;100232.50;5266283;27;20026;-96
2023/09/30 05:58:12;;;;;;;3.20;1.05;;;;;;;17.50;60.13;100231.34;5269152;27;20038;-96
2023/09/30 06:05:08;;;;;;;;;;;;;;;;;;;;;
2023/09/30 06:08:37;;;;;;;;;;;;;;;;;;;;;
2023/09/30 06:29:12;;;;;;;0.82;0.82;;;;;;;19.32;60.23;100229.84;5289193;26;20045;-95
2023/09/30 06:35:50;;;;;;;0.40;0.40;;;;;;;19.56;60.24;100240.75;5323263;26;20056;-96
2023/09/30 06:38:52;;;;;;;;;;;;;;;;;;;;;
2023/09/30 06:44:59;;;;;;;;;;;;;;;;;;;;;
2023/09/30 06:47:59;;;;;;;;;;;;;;;;;;;;;
2023/09/30 06:58:18;;;;;;;;;;;;;;;;;;;;;
2023/09/30 07:08:07;;;;;;;;;;;;;;;;;;;;;
2023/09/30 07:14:20;;;;;;;0.15;0.15;;;;;;;21.18;60.33;100245.31;5204301;27;20042;-96
2023/09/30 07:17:04;;;;;;;;;;;;;;;;;;;;;
2023/09/30 07:20:20;;;;;;;;;;;;;;;;;;;;;
2023/09/30 07:23:35;;;;;;;;;;;;;;;;;;;;;
2023/09/30 07:30:36;;;;;;;;;;;;;;;;;;;;;
2023/09/30 07:37:22;;;;;;;;;;;;;;;;;;;;;
2023/09/30 07:47:47;;;;;;;;;;;;;;;;;;;;;
2023/09/30 08:13:02;;;;;;;;;;;;;;;;;;;;;
2023/09/30 08:26:49;;;;;;;;;;;;;;;;;;;;;
2023/09/30 08:30:05;;;;;;;0.20;0.20;;;;;;;23.71;60.46;100275.44;5162014;27;35898;-95
2023/09/30 08:32:50;;;;;;;;;;;;;;;;;;;;;
2023/09/30 08:46:27;;;;;;;;;;;;;;;;;;;;;
2023/09/30 08:56:21;;;;;;;;;;;;;;;;;;;;;
2023/09/30 09:21:43;;;;;;;2.33;0.93;;;;;;;23.81;60.47;100278.19;5082343;27;20087;-95
2023/09/30 09:28:55;;;;;;;;;;;;;;;;;;;;;
2023/09/30 09:42:48;;;;;;;0.13;0.13;;;;;;;24.32;60.50;100243.13;5084970;27;20066;-95
2023/09/30 09:53:32;;;;;;;;;;;;;;;;;;;;;
2023/09/30 10:06:42;;;;;;;0.73;0.62;;;;;;;24.71;60.52;100242.50;5067122;28;20075;-96
2023/09/30 10:52:14;;;;;;;1.92;1.25;;;;;;;24.28;60.50;100220.34;5053312;28;20035;-96
2023/09/30 11:22:03;;;;;;;1.35;1.05;;;;;;;23.09;60.44;100227.09;4997640;28;20189;-96
2023/09/30 11:24:26;;;;;;;1.20;0.60;;;;;;;23.13;60.45;100232.06;5117097;27;20035;-96
2023/09/30 11:31:36;;;;;;;;;;;;;;;;;;;;;
2023/09/30 15:34:17;;;;;;;;;;;;;;;;;;;;;
